createdAt,value
2022-12-01T00:01:24.665Z,41.37
2022-12-01T00:03:52.224Z,43.70
2022-12-01T00:06:21.201Z,36.00
2022-12-01T00:09:04.066Z,39.60
2022-12-01T00:11:31.824Z,35.20
2022-12-01T00:13:59.570Z,36.03
2022-12-01T00:16:28.509Z,42.00
2022-12-01T00:18:56.640Z,39.80
2022-12-01T00:21:25.741Z,37.50
2022-12-01T00:23:55.375Z,38.00
2022-12-01T00:26:23.428Z,41.53
2022-12-01T00:28:51.347Z,41.00
2022-12-01T00:31:19.156Z,32.47
2022-12-01T00:33:48.272Z,45.07
2022-12-01T00:36:16.095Z,39.67
2022-12-01T00:38:43.726Z,41.27
2022-12-01T00:41:11.715Z,41.77
2022-12-01T00:43:39.657Z,38.53
2022-12-01T00:46:09.026Z,40.93
2022-12-01T00:48:36.703Z,38.83
2022-12-01T00:51:05.822Z,35.07
2022-12-01T00:53:33.781Z,39.53
2022-12-01T00:56:01.662Z,38.63
2022-12-01T00:58:29.304Z,46.57
2022-12-01T01:01:01.466Z,33.77
2022-12-01T01:03:30.028Z,44.17
2022-12-01T01:05:57.742Z,47.20
2022-12-01T01:08:26.611Z,43.27
2022-12-01T01:10:54.176Z,40.70
2022-12-01T01:13:21.734Z,44.67
2022-12-01T01:15:59.017Z,51.40
2022-12-01T01:18:26.781Z,41.77
2022-12-01T01:20:57.017Z,47.63
2022-12-01T01:23:26.294Z,44.50
2022-12-01T01:25:53.898Z,40.90
2022-12-01T01:28:21.526Z,44.23
2022-12-01T01:30:49.188Z,46.40
2022-12-01T01:33:16.792Z,39.87
2022-12-01T01:35:44.377Z,47.53
2022-12-01T01:38:11.959Z,42.60
2022-12-01T01:40:45.476Z,45.23
2022-12-01T01:43:16.423Z,44.17
2022-12-01T01:45:44.408Z,40.17
2022-12-01T01:48:14.418Z,49.73
2022-12-01T01:50:42.635Z,49.43
2022-12-01T01:53:14.564Z,56.93
2022-12-01T01:55:44.580Z,40.60
2022-12-01T01:58:13.573Z,53.57
2022-12-01T02:00:43.476Z,35.60
2022-12-01T02:03:15.771Z,49.47
2022-12-01T02:05:44.771Z,42.70
2022-12-01T02:08:13.223Z,51.73
2022-12-01T02:10:56.242Z,44.00
2022-12-01T02:13:34.395Z,50.90
2022-12-01T02:16:13.561Z,44.90
2022-12-01T02:18:48.965Z,48.03
2022-12-01T02:21:28.538Z,39.73
2022-12-01T02:24:15.754Z,50.17
2022-12-01T02:26:50.193Z,36.97
2022-12-01T02:29:38.942Z,46.70
2022-12-01T02:32:16.787Z,52.30
2022-12-01T02:34:51.892Z,46.87
2022-12-01T02:37:29.264Z,47.93
2022-12-01T02:40:02.741Z,42.63
2022-12-01T02:42:51.776Z,38.67
2022-12-01T02:45:27.550Z,34.10
2022-12-01T02:48:01.772Z,48.00
2022-12-01T02:50:33.519Z,47.00
2022-12-01T02:53:03.964Z,55.37
2022-12-01T02:55:31.528Z,53.03
2022-12-01T02:57:59.134Z,59.90
2022-12-01T03:00:26.898Z,64.27
2022-12-01T03:03:23.027Z,57.53
2022-12-01T03:05:58.178Z,47.57
2022-12-01T03:08:33.673Z,61.90
2022-12-01T03:11:02.679Z,57.17
2022-12-01T03:13:42.445Z,54.23
2022-12-01T03:16:15.252Z,50.97
2022-12-01T03:18:49.586Z,53.83
2022-12-01T03:21:26.180Z,47.47
2022-12-01T03:23:59.648Z,58.83
2022-12-01T03:26:32.242Z,46.63
2022-12-01T03:29:07.216Z,58.90
2022-12-01T03:31:40.592Z,64.50
2022-12-01T03:34:14.910Z,72.97
2022-12-01T03:37:30.350Z,65.57
2022-12-01T03:40:00.576Z,63.30
2022-12-01T03:42:36.691Z,55.17
2022-12-01T03:45:08.927Z,56.33
2022-12-01T03:47:37.733Z,55.97
2022-12-01T03:50:13.846Z,56.57
2022-12-01T03:52:49.417Z,56.57
2022-12-01T03:55:21.786Z,75.43
2022-12-01T03:57:55.080Z,52.40
2022-12-01T04:00:23.899Z,61.60
2022-12-01T04:02:55.957Z,60.27
2022-12-01T04:05:25.705Z,61.17
2022-12-01T04:07:53.771Z,72.23
2022-12-01T04:10:21.704Z,60.23
2022-12-01T04:12:48.618Z,61.03
2022-12-01T04:15:16.676Z,58.50
2022-12-01T04:17:45.500Z,49.37
2022-12-01T04:20:15.337Z,62.00
2022-12-01T04:22:44.594Z,60.83
2022-12-01T04:25:12.722Z,59.90
2022-12-01T04:27:40.594Z,60.03
2022-12-01T04:30:09.396Z,50.40
2022-12-01T04:32:39.845Z,49.53
2022-12-01T04:35:08.456Z,56.63
2022-12-01T04:37:36.330Z,50.83
2022-12-01T04:40:06.821Z,55.23
2022-12-01T04:42:34.446Z,62.20
2022-12-01T04:45:01.992Z,56.57
2022-12-01T04:47:29.601Z,65.23
2022-12-01T04:49:57.162Z,55.83
2022-12-01T04:52:24.893Z,54.00
2022-12-01T04:54:52.416Z,58.20
2022-12-01T04:57:21.311Z,54.47
2022-12-01T04:59:50.237Z,54.20
2022-12-01T05:02:18.148Z,59.07
2022-12-01T05:04:48.180Z,50.53
2022-12-01T05:07:15.843Z,58.27
2022-12-01T05:09:43.526Z,66.60
2022-12-01T05:12:11.165Z,61.17
2022-12-01T05:14:40.134Z,65.13
2022-12-01T05:17:07.737Z,54.57
2022-12-01T05:19:52.761Z,62.33
2022-12-01T05:22:36.452Z,57.50
2022-12-01T05:25:08.417Z,60.30
2022-12-01T05:27:36.045Z,50.37
2022-12-01T05:30:06.265Z,53.73
2022-12-01T05:32:33.983Z,49.50
2022-12-01T05:35:01.582Z,49.53
2022-12-01T05:37:33.130Z,62.50
2022-12-01T05:40:00.772Z,50.80
2022-12-01T05:42:28.738Z,45.30
2022-12-01T05:44:56.276Z,47.00
2022-12-01T05:47:25.332Z,59.63
2022-12-01T05:49:53.032Z,65.17
2022-12-01T05:52:20.619Z,60.47
2022-12-01T05:54:48.220Z,53.20
2022-12-01T05:57:15.765Z,57.53
2022-12-01T05:59:43.312Z,63.53
2022-12-01T06:02:11.015Z,50.20
2022-12-01T06:04:39.964Z,52.33
2022-12-01T06:07:07.564Z,54.70
2022-12-01T06:09:35.158Z,50.77
2022-12-01T06:12:02.812Z,50.00
2022-12-01T06:14:30.469Z,44.57
2022-12-01T06:16:58.109Z,62.53
2022-12-01T06:19:25.678Z,58.73
2022-12-01T06:21:54.566Z,53.07
2022-12-01T06:24:22.142Z,47.27
2022-12-01T06:26:49.979Z,50.47
2022-12-01T06:29:17.561Z,39.17
2022-12-01T06:31:45.179Z,44.30
2022-12-01T06:34:13.011Z,39.13
2022-12-01T06:36:40.586Z,38.07
2022-12-01T06:39:10.321Z,49.43
2022-12-01T06:41:38.075Z,41.60
2022-12-01T06:44:06.518Z,48.17
2022-12-01T06:46:34.189Z,49.37
2022-12-01T06:49:01.797Z,47.53
2022-12-01T06:51:30.395Z,56.67
2022-12-01T06:54:02.205Z,56.53
2022-12-01T06:56:34.387Z,62.73
2022-12-01T06:59:02.403Z,59.10
2022-12-01T07:01:30.280Z,57.30
2022-12-01T07:03:57.855Z,59.47
2022-12-01T07:06:25.510Z,51.43
2022-12-01T07:08:53.960Z,54.43
2022-12-01T07:11:21.681Z,46.20
2022-12-01T07:13:50.937Z,52.20
2022-12-01T07:16:18.603Z,48.47
2022-12-01T07:18:46.143Z,53.37
2022-12-01T07:21:15.797Z,60.10
2022-12-01T07:23:44.472Z,42.43
2022-12-01T07:26:13.877Z,49.40
2022-12-01T07:28:41.695Z,57.63
2022-12-01T07:31:12.628Z,63.90
2022-12-01T07:33:40.414Z,44.70
2022-12-01T07:36:09.677Z,67.10
2022-12-01T07:38:37.428Z,55.43
2022-12-01T07:41:06.147Z,62.57
2022-12-01T07:43:34.349Z,50.33
2022-12-01T07:46:07.190Z,52.30
2022-12-01T07:48:37.121Z,52.73
2022-12-01T07:51:05.079Z,47.30
2022-12-01T07:53:32.754Z,65.97
2022-12-01T07:56:04.325Z,50.83
2022-12-01T07:58:36.492Z,49.30
2022-12-01T08:01:07.878Z,48.93
2022-12-01T08:03:37.345Z,60.67
2022-12-01T08:06:06.483Z,50.33
2022-12-01T08:08:35.454Z,51.43
2022-12-01T08:11:05.093Z,41.33
2022-12-01T08:13:32.767Z,42.77
2022-12-01T08:16:00.417Z,43.80
2022-12-01T08:18:28.080Z,38.37
2022-12-01T08:20:58.957Z,45.87
2022-12-01T08:23:26.538Z,41.43
2022-12-01T08:25:54.118Z,40.63
2022-12-01T08:28:22.069Z,52.20
2022-12-01T08:30:49.680Z,41.87
2022-12-01T08:33:17.296Z,53.70
2022-12-01T08:35:44.891Z,54.57
2022-12-01T08:38:13.776Z,49.93
2022-12-01T08:40:41.318Z,56.07
2022-12-01T08:43:12.355Z,57.77
2022-12-01T08:45:46.378Z,56.33
2022-12-01T08:48:13.946Z,51.33
2022-12-01T08:50:41.474Z,49.40
2022-12-01T08:53:09.007Z,51.00
2022-12-01T08:55:37.888Z,48.87
2022-12-01T08:58:05.432Z,50.23
2022-12-01T09:00:33.012Z,50.57
2022-12-01T09:03:01.868Z,41.17
2022-12-01T09:05:29.523Z,42.83
2022-12-01T09:08:11.398Z,44.60
2022-12-01T09:10:40.433Z,39.37
2022-12-01T09:13:08.127Z,44.50
2022-12-01T09:15:36.452Z,50.50
2022-12-01T09:18:04.427Z,47.07
2022-12-01T09:20:32.415Z,41.83
2022-12-01T09:22:59.958Z,40.70
2022-12-01T09:25:28.274Z,52.87
2022-12-01T09:27:57.457Z,46.67
2022-12-01T09:30:25.113Z,35.03
2022-12-01T09:32:52.687Z,39.67
2022-12-01T09:35:23.366Z,41.87
2022-12-01T09:37:51.301Z,45.87
2022-12-01T09:40:19.217Z,30.10
2022-12-01T09:42:48.737Z,42.80
2022-12-01T09:45:26.467Z,39.10
2022-12-01T09:47:57.706Z,36.27
2022-12-01T09:50:27.356Z,39.93
2022-12-01T09:52:59.857Z,35.50
2022-12-01T09:55:32.861Z,44.77
2022-12-01T09:58:02.615Z,31.07
2022-12-01T10:00:34.142Z,46.20
2022-12-01T10:03:08.176Z,37.87
2022-12-01T10:06:10.165Z,33.63
2022-12-01T10:08:36.936Z,31.77
2022-12-01T10:11:12.219Z,34.00
2022-12-01T10:13:44.158Z,34.00
2022-12-01T10:16:26.402Z,44.43
2022-12-01T10:19:00.972Z,35.50
2022-12-01T10:21:41.563Z,31.50
2022-12-01T10:24:28.705Z,34.60
2022-12-01T10:27:03.207Z,33.00
2022-12-01T10:29:47.344Z,34.93
2022-12-01T10:32:19.490Z,39.60
2022-12-01T10:34:48.815Z,43.83
2022-12-01T10:37:21.373Z,32.63
2022-12-01T10:39:51.697Z,38.83
2022-12-01T10:42:28.023Z,33.33
2022-12-01T10:44:57.231Z,39.97
2022-12-01T10:47:36.127Z,34.90
2022-12-01T10:50:05.049Z,49.03
2022-12-01T10:52:36.212Z,40.30
2022-12-01T10:55:06.592Z,45.07
2022-12-01T10:57:34.339Z,50.80
2022-12-01T11:00:04.928Z,37.10
2022-12-01T11:02:34.588Z,52.43
2022-12-01T11:05:05.173Z,42.13
2022-12-01T11:07:35.394Z,46.47
2022-12-01T11:10:18.808Z,44.67
2022-12-01T11:12:53.368Z,33.33
2022-12-01T11:15:26.607Z,33.33
2022-12-01T11:18:00.874Z,35.13
2022-12-01T11:20:35.386Z,31.47
2022-12-01T11:23:25.563Z,47.97
2022-12-01T11:26:06.787Z,27.60
2022-12-01T11:28:35.824Z,44.30
2022-12-01T11:31:06.338Z,47.67
2022-12-01T11:33:45.983Z,40.20
2022-12-01T11:36:22.599Z,39.87
2022-12-01T11:38:52.048Z,46.23
2022-12-01T11:41:28.664Z,40.50
2022-12-01T11:44:01.813Z,53.73
2022-12-01T11:46:33.824Z,37.33
2022-12-01T11:49:03.367Z,38.30
2022-12-01T11:51:37.328Z,43.23
2022-12-01T11:54:15.512Z,41.80
2022-12-01T11:56:44.957Z,37.87
2022-12-01T11:59:16.590Z,46.17
2022-12-01T12:02:14.590Z,47.40
2022-12-01T12:04:59.924Z,36.10
2022-12-01T12:07:36.711Z,31.07
2022-12-01T12:10:21.254Z,36.33
2022-12-01T12:13:03.830Z,35.00
2022-12-01T12:15:42.144Z,38.67
2022-12-01T12:18:30.243Z,33.37
2022-12-01T12:21:13.524Z,33.60
2022-12-01T12:24:02.099Z,43.97
2022-12-01T12:26:31.372Z,40.00
2022-12-01T12:29:18.646Z,41.47
2022-12-01T12:31:58.390Z,44.63
2022-12-01T12:34:41.712Z,32.43
2022-12-01T12:37:25.164Z,40.10
2022-12-01T12:40:09.072Z,38.80
2022-12-01T12:42:47.248Z,31.60
2022-12-01T12:45:23.585Z,40.57
2022-12-01T12:48:07.000Z,47.60
2022-12-01T12:50:41.075Z,46.20
2022-12-01T12:53:16.888Z,39.97
2022-12-01T12:55:48.870Z,36.13
2022-12-01T12:58:23.476Z,36.97
2022-12-01T13:00:54.836Z,37.70
2022-12-01T13:03:33.624Z,38.07
2022-12-01T13:06:07.721Z,37.53
2022-12-01T13:08:42.324Z,31.17
2022-12-01T13:11:17.160Z,32.10
2022-12-01T13:13:58.221Z,42.53
2022-12-01T13:16:31.380Z,38.63
2022-12-01T13:19:04.886Z,41.27
2022-12-01T13:21:38.295Z,38.33
2022-12-01T13:24:10.723Z,41.87
2022-12-01T13:26:40.470Z,40.27
2022-12-01T13:29:14.769Z,39.00
2022-12-01T13:31:45.102Z,43.60
2022-12-01T13:34:22.712Z,45.07
2022-12-01T13:36:52.720Z,51.40
2022-12-01T13:39:24.524Z,41.37
2022-12-01T13:42:04.871Z,42.50
2022-12-01T13:44:39.980Z,45.27
2022-12-01T13:47:33.323Z,39.00
2022-12-01T13:50:34.423Z,58.90
2022-12-01T13:53:12.659Z,43.17
2022-12-01T13:55:58.174Z,43.13
2022-12-01T13:58:43.228Z,38.50
2022-12-01T14:01:42.793Z,39.60
2022-12-01T14:04:25.954Z,42.70
2022-12-01T14:07:21.701Z,42.90
2022-12-01T14:09:52.077Z,39.80
2022-12-01T14:12:24.959Z,36.17
2022-12-01T14:14:55.841Z,34.80
2022-12-01T14:17:30.161Z,35.90
2022-12-01T14:20:08.322Z,37.40
2022-12-01T14:22:39.754Z,37.93
2022-12-01T14:25:25.521Z,39.63
2022-12-01T14:27:56.700Z,46.83
2022-12-01T14:31:01.861Z,42.43
2022-12-01T14:33:50.931Z,40.27
2022-12-01T14:36:26.271Z,43.03
2022-12-01T14:39:01.587Z,47.30
2022-12-01T14:41:32.309Z,51.57
2022-12-01T14:44:05.894Z,46.60
2022-12-01T14:46:42.673Z,40.27
2022-12-01T14:49:15.131Z,37.70
2022-12-01T14:51:46.791Z,42.50
2022-12-01T14:54:21.300Z,36.70
2022-12-01T14:56:54.652Z,39.90
2022-12-01T14:59:26.856Z,38.10
2022-12-01T15:01:57.204Z,43.83
2022-12-01T15:04:25.328Z,48.13
2022-12-01T15:06:57.148Z,48.87
2022-12-01T15:09:35.238Z,36.83
2022-12-01T15:12:07.126Z,46.40
2022-12-01T15:14:37.911Z,41.00
2022-12-01T15:17:09.522Z,40.80
2022-12-01T15:19:39.087Z,49.07
2022-12-01T15:22:13.110Z,40.63
2022-12-01T15:24:41.063Z,59.10
2022-12-01T15:27:25.846Z,46.20
2022-12-01T15:29:56.359Z,42.47
2022-12-01T15:32:25.740Z,47.73
2022-12-01T15:34:55.519Z,51.30
2022-12-01T15:37:25.721Z,49.47
2022-12-01T15:40:10.059Z,33.90
2022-12-01T15:42:43.854Z,42.07
2022-12-01T15:45:20.395Z,41.03
2022-12-01T15:47:49.558Z,42.17
2022-12-01T15:50:29.533Z,43.60
2022-12-01T15:52:58.094Z,46.87
2022-12-01T15:55:29.479Z,52.57
2022-12-01T15:57:57.714Z,54.37
2022-12-01T16:00:27.353Z,33.00
2022-12-01T16:02:57.208Z,45.43
2022-12-01T16:05:27.017Z,54.17
2022-12-01T16:10:43.610Z,45.53
2022-12-01T16:13:40.804Z,44.33
2022-12-01T16:16:28.990Z,43.00
2022-12-01T16:18:58.556Z,42.20
2022-12-01T16:21:26.953Z,52.33
2022-12-01T16:24:02.537Z,47.40
2022-12-01T16:26:31.275Z,35.83
2022-12-01T16:28:59.789Z,51.97
2022-12-01T16:31:29.028Z,50.40
2022-12-01T16:34:18.423Z,54.20
2022-12-01T16:36:51.795Z,59.07
2022-12-01T16:39:19.808Z,41.20
2022-12-01T16:41:47.930Z,55.73
2022-12-01T16:44:31.120Z,54.07
2022-12-01T16:47:00.221Z,48.53
2022-12-01T16:49:28.542Z,47.47
2022-12-01T16:51:57.471Z,55.03
2022-12-01T16:54:25.822Z,49.20
2022-12-01T16:56:53.412Z,52.40
2022-12-01T16:59:21.154Z,68.00
2022-12-01T17:01:48.808Z,60.03
2022-12-01T17:04:17.872Z,50.93
2022-12-01T17:06:45.440Z,52.40
2022-12-01T17:09:13.068Z,62.53
2022-12-01T17:11:40.598Z,57.73
2022-12-01T17:14:08.280Z,61.13
2022-12-01T17:16:35.972Z,63.53
2022-12-01T17:19:04.579Z,49.90
2022-12-01T17:21:33.570Z,56.23
2022-12-01T17:24:01.161Z,54.53
2022-12-01T17:26:28.972Z,49.73
2022-12-01T17:28:56.609Z,44.10
2022-12-01T17:31:24.317Z,56.00
2022-12-01T17:33:52.037Z,54.03
2022-12-01T17:36:20.113Z,57.40
2022-12-01T17:38:49.625Z,47.87
2022-12-01T17:41:21.652Z,48.87
2022-12-01T17:43:49.288Z,56.53
2022-12-01T17:46:16.979Z,50.23
2022-12-01T17:48:46.319Z,60.93
2022-12-01T17:51:15.177Z,51.77
2022-12-01T17:53:43.860Z,51.43
2022-12-01T17:56:15.624Z,48.20
2022-12-01T17:58:43.575Z,53.00
2022-12-01T18:01:15.092Z,52.17
2022-12-01T18:03:43.087Z,58.40
2022-12-01T18:06:12.267Z,57.30
2022-12-01T18:08:40.684Z,51.33
2022-12-01T18:11:11.754Z,48.20
2022-12-01T18:13:43.670Z,53.20
2022-12-01T18:16:14.235Z,42.03
2022-12-01T18:18:42.220Z,49.50
2022-12-01T18:21:11.994Z,51.37
2022-12-01T18:23:39.992Z,45.83
2022-12-01T18:26:15.243Z,51.47
2022-12-01T18:28:44.897Z,69.80
2022-12-01T18:31:14.695Z,32.80
2022-12-01T18:33:44.630Z,54.77
2022-12-01T18:36:14.370Z,44.23
2022-12-01T18:38:42.089Z,42.17
2022-12-01T18:41:09.963Z,42.53
2022-12-01T18:43:38.108Z,45.03
2022-12-01T18:46:07.996Z,49.30
2022-12-01T18:48:36.534Z,47.90
2022-12-01T18:51:04.567Z,58.90
2022-12-01T18:53:33.480Z,64.40
2022-12-01T18:56:02.372Z,65.57
2022-12-01T18:58:30.445Z,49.33
2022-12-01T19:00:58.094Z,57.50
2022-12-01T19:03:29.895Z,62.27
2022-12-01T19:05:57.568Z,53.07
2022-12-01T19:08:25.793Z,58.87
2022-12-01T19:11:05.342Z,44.10
2022-12-01T19:13:34.108Z,44.23
2022-12-01T19:16:06.771Z,43.87
2022-12-01T19:18:36.685Z,57.17
2022-12-01T19:21:05.031Z,54.03
2022-12-01T19:23:33.081Z,46.10
2022-12-01T19:26:04.943Z,34.67
2022-12-01T19:28:33.116Z,51.50
2022-12-01T19:31:01.374Z,42.10
2022-12-01T19:33:29.233Z,41.50
2022-12-01T19:35:58.388Z,38.70
2022-12-01T19:38:26.527Z,47.27
2022-12-01T19:40:54.234Z,43.47
2022-12-01T19:43:21.789Z,32.90
2022-12-01T19:45:49.668Z,35.67
2022-12-01T19:48:17.410Z,36.57
2022-12-01T19:50:45.046Z,41.07
2022-12-01T19:53:14.522Z,36.37
2022-12-01T19:55:42.121Z,38.60
2022-12-01T19:58:09.814Z,30.63
2022-12-01T20:00:37.521Z,36.83
2022-12-01T20:03:05.596Z,44.57
2022-12-01T20:05:33.911Z,31.63
2022-12-01T20:08:02.788Z,34.97
2022-12-01T20:10:31.870Z,33.23
2022-12-01T20:12:59.524Z,34.80
2022-12-01T20:15:27.158Z,36.07
2022-12-01T20:17:55.249Z,37.47
2022-12-01T20:20:22.834Z,37.70
2022-12-01T20:22:50.404Z,40.33
2022-12-01T20:25:18.186Z,37.83
2022-12-01T20:27:47.102Z,33.07
2022-12-01T20:30:15.877Z,44.73
2022-12-01T20:32:43.475Z,40.67
2022-12-01T20:35:12.620Z,34.77
2022-12-01T20:37:40.172Z,39.10
2022-12-01T20:40:08.891Z,41.07
2022-12-01T20:42:39.553Z,38.23
2022-12-01T20:45:08.827Z,43.33
2022-12-01T20:47:36.943Z,42.73
2022-12-01T20:50:05.865Z,34.10
2022-12-01T20:52:33.587Z,32.90
2022-12-01T20:55:01.175Z,44.53
2022-12-01T20:57:28.732Z,31.53
2022-12-01T20:59:56.352Z,36.63
2022-12-01T21:02:25.381Z,39.10
2022-12-01T21:04:56.415Z,29.30
2022-12-01T21:07:26.525Z,33.97
2022-12-01T21:09:54.212Z,44.20
2022-12-01T21:12:39.848Z,44.40
2022-12-01T21:15:15.270Z,32.50
2022-12-01T21:17:50.434Z,36.17
2022-12-01T21:20:26.487Z,42.30
2022-12-01T21:22:54.929Z,46.60
2022-12-01T21:25:25.487Z,51.33
2022-12-01T21:27:56.093Z,44.77
2022-12-01T21:30:26.329Z,37.97
2022-12-01T21:33:01.416Z,41.27
2022-12-01T21:35:29.116Z,41.87
2022-12-01T21:38:01.239Z,43.33
2022-12-01T21:40:29.455Z,36.77
2022-12-01T21:43:02.223Z,32.93
2022-12-01T21:45:31.832Z,36.57
2022-12-01T21:48:02.281Z,40.90
2022-12-01T21:50:29.860Z,29.67
2022-12-01T21:52:58.832Z,28.03
2022-12-01T21:55:36.892Z,41.27
2022-12-01T21:58:25.265Z,39.47
2022-12-01T22:00:54.674Z,34.53
2022-12-01T22:03:34.444Z,34.03
2022-12-01T22:06:28.650Z,31.83
2022-12-01T22:08:58.808Z,31.27
2022-12-01T22:11:27.535Z,35.23
2022-12-01T22:14:01.770Z,30.27
2022-12-01T22:16:31.174Z,40.23
2022-12-01T22:19:01.995Z,38.80
2022-12-01T22:21:35.823Z,29.73
2022-12-01T22:24:22.125Z,29.70
2022-12-01T22:26:52.918Z,33.50
2022-12-01T22:29:31.211Z,31.87
2022-12-01T22:32:22.163Z,45.27
2022-12-01T22:34:54.910Z,40.57
2022-12-01T22:37:24.538Z,31.00
2022-12-01T22:39:55.572Z,33.77
2022-12-01T22:42:30.742Z,43.77
2022-12-01T22:44:58.653Z,36.57
2022-12-01T22:47:28.419Z,35.67
2022-12-01T22:49:57.401Z,53.07
2022-12-01T22:52:29.228Z,39.47
2022-12-01T22:54:56.897Z,39.77
2022-12-01T22:57:30.992Z,36.27
2022-12-01T22:59:59.274Z,43.37
2022-12-01T23:02:32.831Z,27.57
2022-12-01T23:05:08.415Z,32.77
2022-12-01T23:07:37.130Z,34.20
2022-12-01T23:10:13.373Z,37.53
2022-12-01T23:12:41.753Z,32.50
2022-12-01T23:15:21.462Z,31.40
2022-12-01T23:17:49.847Z,35.33
2022-12-01T23:20:32.045Z,37.27
2022-12-01T23:23:01.946Z,35.43
2022-12-01T23:25:30.259Z,45.60
2022-12-01T23:28:01.235Z,45.87
2022-12-01T23:30:28.892Z,50.57
2022-12-01T23:33:06.925Z,34.83
2022-12-01T23:35:45.049Z,44.37
2022-12-01T23:38:17.373Z,38.03
2022-12-01T23:40:45.349Z,53.60
2022-12-01T23:43:19.516Z,51.57
2022-12-01T23:45:48.915Z,42.83
2022-12-01T23:48:21.697Z,40.70
2022-12-01T23:50:53.743Z,41.77
2022-12-01T23:53:28.056Z,35.43
2022-12-01T23:55:57.520Z,44.50
2022-12-01T23:58:25.091Z,39.20
